Timeline UpdatesTrip UpdatesNews PostsPvt PostsTravel TipsAdmin PostsConv PostsFollowed PostsChat RequestsBlog PostsPNR Posts

Disclaimer
Search
 
 
Thu Apr 17, 2014 04:20:01 ISTHomeTrainsΣChainsAtlasPNRForumGalleryNewsFAQTripsMembersLoginFeedback
No Recent News for this Train
Other Trains in the News **new
Latest...
.
Wed Feb 26, 2014 (06:54PM)
⇐ Return Journey: Train# 15018

15017/Kashi Express

Dec 07 2013 (7:16PM)
Change Departure Station:
Change Arrival Station:
Post a Train Travel TipPost a Train Travel Tip **new
Post a Comment/Question/Picture/VideoPost a Comment/Question/Picture/Video
Pantry/Catering
✕ NO Pantry Car
✓ Catering Avbl
Loco/Rake Reversals
ALD/Allahabad Junction (10);
RSA - Rake Sharing
No RSA.
Rake/Coach Composition
Loco-GEN-GEN-GEN-S1-S2-S3-S4-S5-S6-S7-S8-S9-S10-S11-S12-A1-B1-GEN-GEN-SLR; As per Shubham in # 127749.
Loco
LTT-ET :-BSL/ET WAP-4 / WAM-4 ET-GKP :-ET WDM-3A/3D.
News    PNR    Forum    Time-Table    Availability    Fare Chart    Map    Arr/Dep History    Trips    Gallery    ΣChains    X/O    Timeline    
Travel Time: 36h 35m    70 halts    Distance: 1709 km    Avg Speed: 46 km/hr
Type: Mail/Express
Zone: NER/North Eastern
Departs @ 06:35 (Avg on time)
Platform# 3
SMTWTFS
Mumbai Lokmanya Tilak Terminus/LTT 
Arrives @ 19:10 +1 night (Avg 23m late)
Platform# 6
SMTWTFS
Gorakhpur Junction/GKP 

70 halts. 230 intermediate Stations between Mumbai Lokmanya Tilak Terminus and Gorakhpur Junction

Show ALL intermediate Stations  Show Old Time-Table

#CodeStation NameX/OArrivesAvgDepartsAvgHaltPFDay#KmSpeedElevZoneAddress
1LTT»Mumbai Lokmanya Tilak Terminus (5)»  -06:35+0310.0437mCRMumbai, Maharashtra
2TNAThane (10)X  06:58+307:00+42m7116.56710mCRThane, Maharashtra
3KYNKalyan Junction (8)  07:18+1107:22+124m4136.76110mCRKalyan 421301, Maharashtra
4KSRAKasara (4)X  08:28+1008:30+162m11104.125290mCRDist. Thane 421602, Maharashtra
5IGPIgatpuri (4)X09:05+709:10+125m21118.571589mCRIgatpuri 422403, Maharashtra
6DVLDevlali (3)X  09:48+1909:50+212m11163.434561mCRDist. Nashik 422401, Maharashtra
7NKNasik Road (3)X  10:00+1910:05+185m21169.176563mCRNashik 422101, Maharashtra
8LSLasalgaon (3)X  10:43+1610:45+162m--1217.474592mCRLasalgaon, Maharashtra
9MMRManmad Junction (6)X  11:05+1911:10+195m21241.985580mCRManmad 423104, Maharashtra
10NGNNandgaon (3)  11:28+2211:30+222m--1267.390476mCRNandgaon, Maharashtra
11CSNChalisgaon Junction (3)  11:58+2512:00+272m--1309.496352mCRChalisgaon 424101, Maharashtra
12PCPachora Junction (4)  12:28+2912:30+292m--1354.395264mCRPachora 424201, Maharashtra
13JLJalgaon Junction (4)  13:00+3613:05+345m31402.041213mCRJalgaon 425001, Maharashtra
14BSLBhusaval Junction (8)X  13:40+2613:50+3010m--1426.169208mCRBhusaval 425201, Maharashtra
15RVRaver (2)  14:20+3214:22+362m--1460.476242mCRJalgaon, Maharashtra
16BAUBurhanpur (2)X  14:38+3914:40+392m21480.687269mCRBurhanpur, Madhya Pradesh
17NPNRNepanagar (2)  14:58+4515:00+462m--1506.826289mCRState Highway 27, Madhya Pradesh
18KNWKhandwa Junction (5)XO  16:40-216:45+15m11549.573310mCRKhandwa, Madhya Pradesh
19TLVTalvadiya (2)XO  16:58+817:00+92m--1565.271308mWCRKhandwa, Madhya Pradesh
20SGBJSurgaon Banjari (2)XO  17:10+917:12+122m--1577.077298mWCRKhandwa, Madhya Pradesh
21CAERChhanera (2)O  17:26+1417:28+182m--1594.961283mWCRChhanera, Madhya Pradesh
22BRUDBarud (2)  17:38+1817:40+202m--1605.095273mWCRKhandwa, Madhya Pradesh
23KKNKhirkiya (2)  17:53+2517:55+552m21625.6105281mWCRSH 15, Madhya Pradesh
24HDHarda (3)XO  18:13+1:0518:15+1:052m--1657.156289mWCRHarda, Madhya Pradesh
25TBNTimarni (2)XO  18:30+1:0418:32+1:192m--1671.250308mWCRTimarni, Madhya Pradesh
26BPFBanapura (2)XO  19:06+1:0819:08+1:092m--1699.416314mWCRBanapura, Madhya Pradesh
27ETItarsi Junction (7)X21:10+221:20+1210m11732.974329mWCRItarsi 461111, Madhya Pradesh
28SGPSohagpur (2)X  22:00+3122:02+332m--1782.476340mWCRSohagpur, Madhya Pradesh
29PPIPipariya (3)  22:16+3522:18+362m11800.199338mWCRPiparia, Madhya Pradesh
30GARGadarwara (2)X  22:48+4422:50+442m11849.567352mWCRNarsinghpur, Madhya Pradesh
31KYKareli (2)  23:15+4623:17+462m11877.589361mWCRKareli, Madhya Pradesh
32NUNarsinghpur (2)  23:28+5123:30+502m11893.860365mWCRNarsimhapur, Madhya Pradesh
33SRIDShridham (3)X  00:01+4400:03+442m22924.976373mWCRShridham, Madhya Pradesh
34MMLMadan Mahal (3)  00:42+3900:44+392m22974.619428mWCRJabalpur, Madhya Pradesh
35JBPJabalpur Junction (7)X  00:55+3601:05+4110m32978.174416mWCRJabalpur, Madhya Pradesh
36SHRSihora Road (2)X  01:36+4301:38+432m--21016.575388mWCRJabalpur, Madhya Pradesh
37KTEKatni Junction (6)X  02:20+4202:25+435m--21068.767387mWCRKatni, Madhya Pradesh
38MYRMaihar (3)X  03:21+3103:23+312m121131.766353mWCRMaihar Railway Station, Madhya Pradesh
39STASatna Junction (3)X  03:55+3004:05+3110m--21167.171322mWCRSatna, Madhya Pradesh
40JTWJaitwar (2)X  04:22+3104:24+312m--21187.240321mWCRJaitwar, Madhya Pradesh
41MKPManikpur Junction (4)X  05:50+1205:55+145m--21244.875250mNCRManikpur, Uttar Pradesh
42DBRDabhaura (2)X  06:13+1706:15+172m--21267.372201mNCRDabhaura, Uttar Pradesh
43SRJShankargarh (3)  06:42+2606:44+262m221299.866132mNCRShankargarh, Uttar Pradesh
44JSRJasra (2)X  07:04+3007:06+312m--21321.82497mNCRJasra, Uttar Pradesh
45NYNNaini Junction (4)X  07:45+2607:47+322m421337.21998mNCRAllahabad, Uttar Pradesh
46ALDAllahabad Junction (10)O08:10+3508:30+3620m921344.322100mNCRAllahabad 211003, Uttar Pradesh
47PRGPrayag Junction (3)X  08:47+4508:49+482m--21350.61696mNRAllahabad, Uttar Pradesh
48PFMPhaphamau Junction (3)X  09:13+3709:15+372m--21357.06099mNRAllahabad, Uttar Pradesh
49SYCSarai Chandi  09:28+4109:30+412m--21370.15795mNR221507, Uttar Pradesh
50PLPPhulpur (3)  09:41+4409:43+442m121380.67893mNRDistrict - Allahabad 212402, Uttar Pradesh
51URPRUgrasenpur (2)  09:51+4709:53+462m121391.05096mNRJanghai, Uttar Pradesh
52JNHJanghai Junction (3)  10:08+5410:10+582m121403.63492mNRUttar Pradesh 212401, Uttar Pradesh
53SQNSarai Kansrai (2)X  10:19+5910:21+1:012m--21408.64092mNRGopalaha Marg, Uttar Pradesh
54SAWSuriawan (2)  10:36+5810:38+592m--21418.75490mNR221404, Uttar Pradesh
55MOFMondh (2)  10:46+1:0210:48+1:022m121425.94491mNRUttar Pradesh 221406, Uttar Pradesh
56BOYBhadohi (2)  10:59+1:0211:01+1:032m--21434.04190mNRUttar Pradesh 221401, Uttar Pradesh
57PRFParsipur (2)  11:13+1:0211:15+1:022m--21442.36387mNRSant Ravidas Nagar, Uttar Pradesh
58KEHKapseti (2)  11:23+1:0411:25+1:052m--21450.74085mNRState Highway 87, Uttar Pradesh
59SWPRSewapuri (2)X  11:33+1:0411:35+1:042m121456.02187mNRState Highway 87, Uttar Pradesh
60BSBVaranasi Junction (9)X  12:40+2913:00+2720m521478.52482mNRVaranasi, Uttar Pradesh
61BCYVaranasi City (3)  13:08+5513:10+582m--21481.85877mNERVaranasi, Uttar Pradesh
62ARJAunrihar Junction (4)  13:43+1:0213:45+1:032m--21513.77180mNERGhazipur, Uttar Pradesh
63JKNJakhanianX  14:09+1:1414:11+1:152m--21542.23082mNERState Highway 67, Uttar Pradesh
64DLRDullahapur  14:28+1:1014:30+1:112m--21550.63679mNERDullahapur, Uttar Pradesh
65MAUMau Junction (4)  15:05+1:0015:10+1:025m121571.63175mNERMau., Uttar Pradesh
66IAAIndara Junction (3)X  15:25+1:0015:27+1:042m--21579.44574mNERMau, Uttar Pradesh
67BLTRBelthara Road (2)  16:03+1:0016:05+1:002m--21606.59870mNERBelthara, Uttar Pradesh
68LRDLar Road (2)  16:13+1:0616:15+1:062m--21619.61874mNERDeoria, Uttar Pradesh
69SRUSalempur Junction (2)X  16:46+4516:48+472m--21629.12871mNERSalempur, Uttar Pradesh
70BTTBhatni Junction (5)X  17:10+3817:15+405m--21639.36973mNERDeoria, Uttar Pradesh
71DEOSDeoria Sadar (3)  17:33+4517:35+472m--21660.13179mNERDeoria- 274001, Uttar Pradesh
72GKP•Gorakhpur Junction (10)•  19:10+23-621709.2-84mNERGorakhpur 273001, Uttar Pradesh
Scroll to Top
Scroll to Bottom